createdAt,value
2018-11-21T00:00:21.890Z,27.47
2018-11-21T00:02:50.947Z,22.97
2018-11-21T00:05:20.292Z,27.77
2018-11-21T00:07:49.793Z,26.40
2018-11-21T00:10:18.854Z,24.80
2018-11-21T00:12:54.331Z,25.97
2018-11-21T00:15:23.648Z,28.10
2018-11-21T00:17:53.428Z,26.97
2018-11-21T00:20:22.278Z,22.77
2018-11-21T00:22:50.932Z,24.90
2018-11-21T00:25:19.679Z,26.63
2018-11-21T00:27:48.179Z,25.20
2018-11-21T00:30:18.462Z,26.10
2018-11-21T00:32:46.971Z,23.60
2018-11-21T00:35:16.178Z,26.77
2018-11-21T00:37:44.437Z,25.70
2018-11-21T00:40:14.323Z,28.10
2018-11-21T00:42:46.748Z,26.03
2018-11-21T00:45:11.680Z,23.10
2018-11-21T00:47:40.429Z,27.80
2018-11-21T00:50:08.937Z,25.30
2018-11-21T00:52:37.591Z,26.57
2018-11-21T00:55:06.845Z,25.57
2018-11-21T00:57:35.345Z,29.67
2018-11-21T01:00:03.976Z,35.20
2018-11-21T01:02:32.476Z,30.50
2018-11-21T01:05:00.947Z,28.40
2018-11-21T01:07:29.551Z,25.57
2018-11-21T01:09:58.028Z,25.53
2018-11-21T01:12:26.592Z,28.03
2018-11-21T01:14:55.071Z,27.00
2018-11-21T01:17:23.576Z,27.03
2018-11-21T01:19:52.048Z,26.87
2018-11-21T01:22:20.516Z,26.73
2018-11-21T01:24:49.393Z,29.23
2018-11-21T01:27:17.863Z,28.33
2018-11-21T01:29:46.371Z,28.23
2018-11-21T01:32:14.873Z,26.57
2018-11-21T01:34:43.389Z,24.53
2018-11-21T01:37:11.861Z,26.23
2018-11-21T01:39:40.656Z,26.17
2018-11-21T01:42:09.045Z,25.67
2018-11-21T01:44:37.566Z,26.47
2018-11-21T01:47:06.187Z,28.77
2018-11-21T01:49:34.663Z,28.53
2018-11-21T01:52:03.168Z,28.60
2018-11-21T01:54:31.639Z,27.33
2018-11-21T01:57:00.156Z,27.73
2018-11-21T01:59:28.633Z,29.60
2018-11-21T02:01:57.158Z,29.80
2018-11-21T02:04:25.624Z,28.67
2018-11-21T02:06:54.134Z,28.23
2018-11-21T02:09:22.605Z,25.77
2018-11-21T02:11:51.112Z,29.03
2018-11-21T02:14:19.676Z,28.77
2018-11-21T02:16:48.201Z,30.37
2018-11-21T02:19:16.684Z,35.17
2018-11-21T02:21:45.152Z,35.20
2018-11-21T02:24:13.661Z,31.43
2018-11-21T02:26:42.127Z,30.73
2018-11-21T02:29:10.631Z,30.67
2018-11-21T02:31:39.092Z,33.47
2018-11-21T02:34:07.598Z,29.33
2018-11-21T02:36:36.054Z,26.03
2018-11-21T02:39:08.106Z,31.60
2018-11-21T02:41:36.995Z,30.10
2018-11-21T02:44:05.861Z,30.17
2018-11-21T02:46:34.581Z,29.83
2018-11-21T02:49:03.417Z,31.80
2018-11-21T02:51:31.879Z,30.43
2018-11-21T02:54:00.352Z,34.90
2018-11-21T02:57:06.330Z,32.67
2018-11-21T02:59:34.790Z,35.47
2018-11-21T03:02:03.294Z,34.63
2018-11-21T03:04:31.775Z,33.37
2018-11-21T03:07:00.267Z,32.33
2018-11-21T03:09:28.734Z,37.03
2018-11-21T03:11:57.252Z,39.33
2018-11-21T03:14:25.722Z,40.60
2018-11-21T03:16:54.221Z,35.73
2018-11-21T03:19:22.715Z,36.57
2018-11-21T03:21:51.213Z,35.03
2018-11-21T03:24:19.677Z,35.80
2018-11-21T03:26:48.188Z,33.50
2018-11-21T03:29:16.655Z,38.80
2018-11-21T03:31:45.156Z,37.70
2018-11-21T03:34:13.624Z,31.77
2018-11-21T03:36:48.170Z,40.00
2018-11-21T03:39:17.326Z,33.63
2018-11-21T03:41:46.468Z,31.57
2018-11-21T03:44:14.956Z,34.43
2018-11-21T03:46:44.459Z,37.00
2018-11-21T03:49:12.922Z,33.53
2018-11-21T03:51:41.680Z,33.30
2018-11-21T03:54:10.421Z,36.33
2018-11-21T03:56:39.565Z,35.80
2018-11-21T03:59:08.691Z,36.47
2018-11-21T04:01:37.448Z,37.80
2018-11-21T04:04:06.777Z,29.77
2018-11-21T04:06:35.238Z,35.97
2018-11-21T04:09:05.073Z,35.30
2018-11-21T04:11:33.539Z,37.50
2018-11-21T04:14:02.069Z,33.27
2018-11-21T04:16:30.528Z,35.63
2018-11-21T04:18:59.014Z,32.80
2018-11-21T04:21:27.590Z,33.67
2018-11-21T04:23:56.100Z,37.10
2018-11-21T04:26:24.600Z,33.63
2018-11-21T04:28:53.104Z,35.20
2018-11-21T04:31:21.560Z,31.50
2018-11-21T04:33:50.039Z,37.03
2018-11-21T04:36:18.534Z,34.43
2018-11-21T04:39:00.679Z,35.60
2018-11-21T04:41:29.164Z,32.43
2018-11-21T04:43:57.631Z,33.67
2018-11-21T04:46:26.146Z,34.40
2018-11-21T04:48:54.607Z,33.40
2018-11-21T04:51:23.074Z,32.07
2018-11-21T04:53:51.572Z,32.17
2018-11-21T04:56:20.035Z,33.33
2018-11-21T04:58:48.542Z,32.17
2018-11-21T05:01:17.041Z,33.73
2018-11-21T05:03:45.534Z,36.00
2018-11-21T05:06:13.996Z,33.77
2018-11-21T05:08:42.493Z,35.60
2018-11-21T05:11:11.205Z,31.43
2018-11-21T05:13:39.717Z,30.70
2018-11-21T05:16:08.205Z,30.87
2018-11-21T05:18:36.709Z,35.10
2018-11-21T05:21:05.287Z,32.60
2018-11-21T05:23:33.882Z,28.90
2018-11-21T05:26:02.343Z,30.70
2018-11-21T05:28:30.836Z,33.57
2018-11-21T05:30:59.301Z,33.90
2018-11-21T05:33:28.079Z,31.90
2018-11-21T05:35:56.538Z,32.30
2018-11-21T05:38:25.059Z,32.10
2018-11-21T05:40:53.517Z,35.07
2018-11-21T05:43:22.022Z,32.20
2018-11-21T05:45:50.480Z,34.93
2018-11-21T05:48:18.986Z,32.83
2018-11-21T05:50:47.454Z,30.73
2018-11-21T05:53:15.956Z,36.37
2018-11-21T05:55:44.417Z,29.10
2018-11-21T05:58:12.922Z,31.93
2018-11-21T06:00:49.135Z,31.67
2018-11-21T06:03:13.692Z,32.40
2018-11-21T06:05:42.155Z,32.37
2018-11-21T06:08:10.684Z,36.03
2018-11-21T06:10:39.150Z,31.30
2018-11-21T06:13:07.686Z,33.00
2018-11-21T06:15:36.150Z,33.97
2018-11-21T06:18:05.003Z,32.63
2018-11-21T06:20:33.500Z,33.70
2018-11-21T06:23:01.966Z,28.83
2018-11-21T06:25:30.662Z,32.93
2018-11-21T06:27:59.138Z,29.67
2018-11-21T06:30:27.642Z,31.20
2018-11-21T06:32:56.116Z,32.20
2018-11-21T06:35:24.759Z,32.10
2018-11-21T06:37:53.229Z,32.73
2018-11-21T06:40:21.721Z,30.93
2018-11-21T06:42:54.315Z,33.60
2018-11-21T06:45:24.162Z,34.33
2018-11-21T06:47:52.630Z,35.47
2018-11-21T06:50:21.330Z,34.93
2018-11-21T06:52:50.078Z,32.17
2018-11-21T06:55:18.589Z,31.93
2018-11-21T06:57:47.095Z,30.27
2018-11-21T07:00:15.606Z,31.53
2018-11-21T07:02:44.105Z,38.10
2018-11-21T07:05:12.751Z,60.00
2018-11-21T07:07:41.211Z,40.40
2018-11-21T07:10:12.149Z,37.30
2018-11-21T07:12:40.671Z,32.17
2018-11-21T07:15:09.488Z,33.80
2018-11-21T07:17:38.308Z,34.90
2018-11-21T07:20:09.017Z,31.63
2018-11-21T07:22:39.811Z,34.57
2018-11-21T07:25:35.148Z,29.03
2018-11-21T07:28:03.675Z,28.90
2018-11-21T07:30:32.161Z,32.03
2018-11-21T07:33:00.625Z,30.47
2018-11-21T07:35:29.126Z,29.60
2018-11-21T07:37:57.600Z,29.70
2018-11-21T07:40:26.113Z,28.03
2018-11-21T07:42:54.583Z,30.93
2018-11-21T07:45:23.755Z,28.57
2018-11-21T07:47:51.572Z,28.57
2018-11-21T07:50:21.227Z,28.53
2018-11-21T07:52:49.713Z,31.67
2018-11-21T07:55:18.328Z,27.87
2018-11-21T07:57:48.756Z,30.67
2018-11-21T08:00:54.147Z,29.13
2018-11-21T08:03:23.667Z,32.33
2018-11-21T08:05:54.845Z,33.80
2018-11-21T08:08:48.351Z,31.83
2018-11-21T08:11:34.526Z,31.10
2018-11-21T08:14:20.640Z,31.83
2018-11-21T08:17:13.990Z,32.17
2018-11-21T08:20:16.898Z,33.47
2018-11-21T08:23:08.136Z,30.30
2018-11-21T08:25:58.515Z,32.30
2018-11-21T08:28:30.911Z,32.17
2018-11-21T08:30:59.412Z,30.53
2018-11-21T08:33:33.852Z,31.17
2018-11-21T08:35:57.125Z,32.23
2018-11-21T08:38:25.594Z,31.23
2018-11-21T08:40:54.220Z,29.90
2018-11-21T08:43:22.702Z,29.77
2018-11-21T08:45:51.273Z,28.07
2018-11-21T08:48:20.565Z,28.30
2018-11-21T08:50:49.069Z,28.63
2018-11-21T08:53:17.576Z,29.17
2018-11-21T08:55:46.051Z,27.63
2018-11-21T08:58:15.000Z,29.37
2018-11-21T09:00:43.521Z,28.90
2018-11-21T09:03:14.254Z,29.10
2018-11-21T09:05:42.786Z,27.87
2018-11-21T09:08:11.291Z,28.53
2018-11-21T09:10:39.755Z,29.27
2018-11-21T09:13:08.272Z,27.50
2018-11-21T09:15:37.137Z,26.20
2018-11-21T09:18:05.894Z,29.33
2018-11-21T09:20:34.388Z,28.70
2018-11-21T09:23:02.913Z,28.77
2018-11-21T09:25:31.982Z,27.70
2018-11-21T09:28:00.538Z,28.17
2018-11-21T09:30:29.013Z,26.13
2018-11-21T09:32:58.163Z,26.43
2018-11-21T09:35:26.679Z,26.07
2018-11-21T09:37:55.811Z,26.17
2018-11-21T09:40:24.644Z,26.57
2018-11-21T09:42:55.441Z,26.53
2018-11-21T09:45:25.206Z,27.83
2018-11-21T09:47:53.687Z,26.50
2018-11-21T09:50:29.432Z,26.13
2018-11-21T09:53:00.282Z,25.33
2018-11-21T09:55:29.164Z,24.83
2018-11-21T09:57:57.893Z,23.73
2018-11-21T10:01:03.424Z,26.47
2018-11-21T10:03:33.354Z,25.40
2018-11-21T10:06:19.823Z,24.80
2018-11-21T10:08:50.216Z,25.53
2018-11-21T10:11:18.960Z,24.93
2018-11-21T10:13:47.516Z,24.93
2018-11-21T10:16:16.503Z,26.43
2018-11-21T10:18:46.966Z,31.80
2018-11-21T10:21:17.198Z,28.03
2018-11-21T10:23:48.133Z,26.40
2018-11-21T10:26:17.709Z,26.20
2018-11-21T10:28:48.010Z,23.83
2018-11-21T10:31:16.832Z,24.70
2018-11-21T10:33:49.161Z,24.97
2018-11-21T10:36:17.958Z,23.57
2018-11-21T10:38:46.420Z,26.53
2018-11-21T10:41:14.922Z,27.13
2018-11-21T10:43:43.378Z,25.87
2018-11-21T10:46:11.884Z,24.80
2018-11-21T10:48:40.369Z,24.73
2018-11-21T10:51:09.876Z,24.53
2018-11-21T10:53:39.280Z,24.50
2018-11-21T10:56:08.806Z,23.70
2018-11-21T10:58:38.206Z,29.87
2018-11-21T11:01:24.317Z,27.40
2018-11-21T11:04:23.900Z,24.93
2018-11-21T11:07:10.147Z,23.70
2018-11-21T11:09:51.769Z,25.93
2018-11-21T11:12:40.521Z,25.03
2018-11-21T11:15:37.497Z,25.67
2018-11-21T11:18:32.337Z,31.17
2018-11-21T11:21:19.078Z,24.83
2018-11-21T11:27:41.731Z,30.30
2018-11-21T11:30:39.229Z,32.07
2018-11-21T11:33:26.374Z,25.70
2018-11-21T11:36:13.312Z,26.40
2018-11-21T11:38:56.395Z,25.80
2018-11-21T11:41:42.621Z,24.77
2018-11-21T11:44:29.958Z,24.20
2018-11-21T11:47:17.829Z,25.00
2018-11-21T11:49:57.730Z,25.73
2018-11-21T11:52:45.320Z,25.20
2018-11-21T11:55:32.503Z,27.63
2018-11-21T11:58:38.100Z,24.10
2018-11-21T12:01:45.059Z,27.23
2018-11-21T12:04:36.448Z,25.30
2018-11-21T12:07:25.439Z,25.70
2018-11-21T12:10:12.591Z,27.87
2018-11-21T12:13:06.939Z,24.47
2018-11-21T12:16:10.818Z,26.23
2018-11-21T12:19:04.348Z,26.17
2018-11-21T12:21:51.759Z,27.57
